sensor_id;sensor_type;location;lat;lon;timestamp;temperature;humidity
8269;DHT22;4174;48.304;16.364;2023-03-23T00:06:06;11.80;99.90
8269;DHT22;4174;48.304;16.364;2023-03-23T00:12:10;11.60;99.90
8269;DHT22;4174;48.304;16.364;2023-03-23T00:18:15;11.50;99.90
8269;DHT22;4174;48.304;16.364;2023-03-23T00:24:27;11.40;99.90
8269;DHT22;4174;48.304;16.364;2023-03-23T00:30:34;11.30;99.90
8269;DHT22;4174;48.304;16.364;2023-03-23T00:36:44;11.20;99.90
8269;DHT22;4174;48.304;16.364;2023-03-23T00:42:48;11.20;99.90
8269;DHT22;4174;48.304;16.364;2023-03-23T00:48:54;11.00;99.90
8269;DHT22;4174;48.304;16.364;2023-03-23T00:54:58;10.90;99.90
8269;DHT22;4174;48.304;16.364;2023-03-23T01:01:03;10.90;99.90
8269;DHT22;4174;48.304;16.364;2023-03-23T01:07:08;10.70;99.90
8269;DHT22;4174;48.304;16.364;2023-03-23T01:13:12;10.60;99.90
8269;DHT22;4174;48.304;16.364;2023-03-23T01:19:16;10.50;99.90
8269;DHT22;4174;48.304;16.364;2023-03-23T01:25:20;10.40;99.90
8269;DHT22;4174;48.304;16.364;2023-03-23T01:31:26;10.40;99.90
8269;DHT22;4174;48.304;16.364;2023-03-23T01:37:31;10.30;99.90
8269;DHT22;4174;48.304;16.364;2023-03-23T01:43:35;10.30;99.90
8269;DHT22;4174;48.304;16.364;2023-03-23T01:49:41;10.10;99.90
8269;DHT22;4174;48.304;16.364;2023-03-23T01:55:45;10.10;99.90
8269;DHT22;4174;48.304;16.364;2023-03-23T02:01:50;10.10;99.90
8269;DHT22;4174;48.304;16.364;2023-03-23T02:07:56;10.00;99.90
8269;DHT22;4174;48.304;16.364;2023-03-23T02:13:59;10.00;99.90
8269;DHT22;4174;48.304;16.364;2023-03-23T02:20:13;9.80;99.90
8269;DHT22;4174;48.304;16.364;2023-03-23T02:26:26;9.70;99.90
8269;DHT22;4174;48.304;16.364;2023-03-23T02:39:16;9.50;99.90
8269;DHT22;4174;48.304;16.364;2023-03-23T02:45:25;9.50;99.90
8269;DHT22;4174;48.304;16.364;2023-03-23T02:51:28;9.40;99.90
8269;DHT22;4174;48.304;16.364;2023-03-23T02:57:35;9.20;99.90
8269;DHT22;4174;48.304;16.364;2023-03-23T03:03:38;9.20;99.90
8269;DHT22;4174;48.304;16.364;2023-03-23T03:09:52;9.20;99.90
8269;DHT22;4174;48.304;16.364;2023-03-23T03:16:12;9.30;99.90
8269;DHT22;4174;48.304;16.364;2023-03-23T03:22:33;9.10;99.90
8269;DHT22;4174;48.304;16.364;2023-03-23T03:28:37;9.10;99.90
8269;DHT22;4174;48.304;16.364;2023-03-23T03:34:45;9.00;99.90
8269;DHT22;4174;48.304;16.364;2023-03-23T03:40:50;8.90;99.90
8269;DHT22;4174;48.304;16.364;2023-03-23T03:46:55;8.90;99.90
8269;DHT22;4174;48.304;16.364;2023-03-23T03:52:59;8.80;99.90
8269;DHT22;4174;48.304;16.364;2023-03-23T03:59:05;8.80;99.90
8269;DHT22;4174;48.304;16.364;2023-03-23T04:05:08;8.60;99.90
8269;DHT22;4174;48.304;16.364;2023-03-23T04:11:13;8.60;99.90
8269;DHT22;4174;48.304;16.364;2023-03-23T04:17:17;8.60;99.90
8269;DHT22;4174;48.304;16.364;2023-03-23T04:23:22;8.60;99.90
8269;DHT22;4174;48.304;16.364;2023-03-23T04:29:29;8.50;99.90
8269;DHT22;4174;48.304;16.364;2023-03-23T04:35:34;8.40;99.90
8269;DHT22;4174;48.304;16.364;2023-03-23T04:41:40;8.40;99.90
8269;DHT22;4174;48.304;16.364;2023-03-23T04:47:46;8.40;99.90
8269;DHT22;4174;48.304;16.364;2023-03-23T04:53:50;8.40;99.90
8269;DHT22;4174;48.304;16.364;2023-03-23T04:59:56;8.30;99.90
8269;DHT22;4174;48.304;16.364;2023-03-23T05:06:02;8.30;99.90
8269;DHT22;4174;48.304;16.364;2023-03-23T05:12:09;8.20;99.90
8269;DHT22;4174;48.304;16.364;2023-03-23T05:18:15;8.20;99.90
8269;DHT22;4174;48.304;16.364;2023-03-23T05:24:21;8.20;99.90
8269;DHT22;4174;48.304;16.364;2023-03-23T05:30:25;8.60;99.90
8269;DHT22;4174;48.304;16.364;2023-03-23T05:36:33;8.80;99.90
8269;DHT22;4174;48.304;16.364;2023-03-23T05:42:39;8.80;99.90
8269;DHT22;4174;48.304;16.364;2023-03-23T05:54:58;9.50;99.90
8269;DHT22;4174;48.304;16.364;2023-03-23T06:01:06;9.80;99.90
8269;DHT22;4174;48.304;16.364;2023-03-23T06:07:09;9.60;99.90
8269;DHT22;4174;48.304;16.364;2023-03-23T06:13:14;9.50;99.90
8269;DHT22;4174;48.304;16.364;2023-03-23T06:19:24;9.60;99.90
8269;DHT22;4174;48.304;16.364;2023-03-23T06:25:31;10.10;99.90
8269;DHT22;4174;48.304;16.364;2023-03-23T06:31:39;10.70;99.90
8269;DHT22;4174;48.304;16.364;2023-03-23T06:37:44;10.70;99.90
8269;DHT22;4174;48.304;16.364;2023-03-23T07:03:59;12.60;99.90
8269;DHT22;4174;48.304;16.364;2023-03-23T07:10:06;12.60;99.90
8269;DHT22;4174;48.304;16.364;2023-03-23T07:22:40;12.80;99.90
8269;DHT22;4174;48.304;16.364;2023-03-23T07:28:44;12.80;99.90
8269;DHT22;4174;48.304;16.364;2023-03-23T07:34:51;12.90;99.90
8269;DHT22;4174;48.304;16.364;2023-03-23T07:40:56;12.80;99.90
8269;DHT22;4174;48.304;16.364;2023-03-23T07:47:01;12.90;99.90
8269;DHT22;4174;48.304;16.364;2023-03-23T07:53:06;13.30;99.90
8269;DHT22;4174;48.304;16.364;2023-03-23T07:59:11;14.40;99.90
8269;DHT22;4174;48.304;16.364;2023-03-23T08:05:15;14.30;99.90
8269;DHT22;4174;48.304;16.364;2023-03-23T08:11:23;14.10;99.90
8269;DHT22;4174;48.304;16.364;2023-03-23T08:17:28;14.10;99.90
8269;DHT22;4174;48.304;16.364;2023-03-23T08:23:37;14.50;99.90
8269;DHT22;4174;48.304;16.364;2023-03-23T08:29:45;14.50;99.90
8269;DHT22;4174;48.304;16.364;2023-03-23T08:35:56;15.30;99.90
8269;DHT22;4174;48.304;16.364;2023-03-23T08:42:22;15.80;99.90
8269;DHT22;4174;48.304;16.364;2023-03-23T08:48:26;16.90;99.90
8269;DHT22;4174;48.304;16.364;2023-03-23T08:54:32;18.20;99.90
8269;DHT22;4174;48.304;16.364;2023-03-23T09:00:37;19.50;98.80
8269;DHT22;4174;48.304;16.364;2023-03-23T09:06:43;21.30;91.80
8269;DHT22;4174;48.304;16.364;2023-03-23T09:12:48;21.90;84.20
8269;DHT22;4174;48.304;16.364;2023-03-23T09:18:57;22.60;79.40
8269;DHT22;4174;48.304;16.364;2023-03-23T09:25:04;23.40;73.00
8269;DHT22;4174;48.304;16.364;2023-03-23T09:31:10;23.40;72.70
8269;DHT22;4174;48.304;16.364;2023-03-23T09:37:16;24.40;70.40
8269;DHT22;4174;48.304;16.364;2023-03-23T09:43:36;24.30;66.30
8269;DHT22;4174;48.304;16.364;2023-03-23T09:49:40;24.20;66.20
8269;DHT22;4174;48.304;16.364;2023-03-23T09:55:45;23.40;66.70
8269;DHT22;4174;48.304;16.364;2023-03-23T10:01:52;24.10;63.90
8269;DHT22;4174;48.304;16.364;2023-03-23T10:07:58;23.40;65.50
8269;DHT22;4174;48.304;16.364;2023-03-23T10:14:10;23.70;65.70
8269;DHT22;4174;48.304;16.364;2023-03-23T10:20:19;23.80;61.30
8269;DHT22;4174;48.304;16.364;2023-03-23T10:26:50;23.80;61.00
8269;DHT22;4174;48.304;16.364;2023-03-23T10:33:08;24.30;61.20
8269;DHT22;4174;48.304;16.364;2023-03-23T10:39:17;25.00;63.00
8269;DHT22;4174;48.304;16.364;2023-03-23T10:45:25;25.70;58.60
8269;DHT22;4174;48.304;16.364;2023-03-23T10:51:33;24.70;57.00
8269;DHT22;4174;48.304;16.364;2023-03-23T10:57:38;24.50;56.70
8269;DHT22;4174;48.304;16.364;2023-03-23T11:03:44;24.60;58.40
8269;DHT22;4174;48.304;16.364;2023-03-23T11:09:52;24.60;58.40
8269;DHT22;4174;48.304;16.364;2023-03-23T11:15:58;25.80;55.40
8269;DHT22;4174;48.304;16.364;2023-03-23T11:22:15;25.70;55.30
8269;DHT22;4174;48.304;16.364;2023-03-23T11:28:37;25.40;57.00
8269;DHT22;4174;48.304;16.364;2023-03-23T11:34:44;26.40;56.00
8269;DHT22;4174;48.304;16.364;2023-03-23T11:40:55;24.60;55.90
8269;DHT22;4174;48.304;16.364;2023-03-23T11:47:08;24.20;55.80
8269;DHT22;4174;48.304;16.364;2023-03-23T11:53:21;24.20;56.40
8269;DHT22;4174;48.304;16.364;2023-03-23T12:06:13;22.20;58.00
8269;DHT22;4174;48.304;16.364;2023-03-23T12:18:55;22.70;60.80
8269;DHT22;4174;48.304;16.364;2023-03-23T12:25:05;23.10;59.90
8269;DHT22;4174;48.304;16.364;2023-03-23T12:31:20;23.00;59.10
8269;DHT22;4174;48.304;16.364;2023-03-23T12:37:38;24.00;56.10
8269;DHT22;4174;48.304;16.364;2023-03-23T12:43:52;22.70;56.20
8269;DHT22;4174;48.304;16.364;2023-03-23T12:50:07;23.80;57.00
8269;DHT22;4174;48.304;16.364;2023-03-23T12:56:34;23.70;56.90
8269;DHT22;4174;48.304;16.364;2023-03-23T13:02:55;22.90;56.80
8269;DHT22;4174;48.304;16.364;2023-03-23T13:09:05;22.90;56.80
8269;DHT22;4174;48.304;16.364;2023-03-23T13:15:33;23.40;54.70
8269;DHT22;4174;48.304;16.364;2023-03-23T13:21:46;23.40;54.70
8269;DHT22;4174;48.304;16.364;2023-03-23T13:27:57;23.60;56.30
8269;DHT22;4174;48.304;16.364;2023-03-23T13:34:12;23.10;53.40
8269;DHT22;4174;48.304;16.364;2023-03-23T13:40:29;22.60;56.10
8269;DHT22;4174;48.304;16.364;2023-03-23T13:46:35;23.20;55.30
8269;DHT22;4174;48.304;16.364;2023-03-23T13:52:52;23.00;56.80
8269;DHT22;4174;48.304;16.364;2023-03-23T13:59:33;23.00;58.10
8269;DHT22;4174;48.304;16.364;2023-03-23T14:06:01;22.30;59.10
8269;DHT22;4174;48.304;16.364;2023-03-23T14:12:26;22.70;56.70
8269;DHT22;4174;48.304;16.364;2023-03-23T14:18:39;22.10;56.80
8269;DHT22;4174;48.304;16.364;2023-03-23T14:24:45;22.60;56.60
8269;DHT22;4174;48.304;16.364;2023-03-23T14:30:52;23.10;54.90
8269;DHT22;4174;48.304;16.364;2023-03-23T14:36:55;22.70;55.50
8269;DHT22;4174;48.304;16.364;2023-03-23T14:43:02;22.70;55.20
8269;DHT22;4174;48.304;16.364;2023-03-23T14:49:10;22.60;54.50
8269;DHT22;4174;48.304;16.364;2023-03-23T14:55:18;22.60;56.40
8269;DHT22;4174;48.304;16.364;2023-03-23T15:01:26;22.60;55.80
8269;DHT22;4174;48.304;16.364;2023-03-23T15:07:34;22.10;54.50
8269;DHT22;4174;48.304;16.364;2023-03-23T15:13:37;22.20;56.90
8269;DHT22;4174;48.304;16.364;2023-03-23T15:19:42;22.00;56.30
8269;DHT22;4174;48.304;16.364;2023-03-23T15:25:50;21.80;55.90
8269;DHT22;4174;48.304;16.364;2023-03-23T15:31:55;21.80;55.80
8269;DHT22;4174;48.304;16.364;2023-03-23T15:37:59;21.70;56.10
8269;DHT22;4174;48.304;16.364;2023-03-23T15:44:11;21.70;56.30
8269;DHT22;4174;48.304;16.364;2023-03-23T15:50:18;21.80;56.20
8269;DHT22;4174;48.304;16.364;2023-03-23T15:56:25;21.90;55.80
8269;DHT22;4174;48.304;16.364;2023-03-23T16:02:31;21.50;56.30
8269;DHT22;4174;48.304;16.364;2023-03-23T16:08:37;21.50;56.40
8269;DHT22;4174;48.304;16.364;2023-03-23T16:14:45;21.80;56.10
8269;DHT22;4174;48.304;16.364;2023-03-23T16:20:51;21.70;57.20
8269;DHT22;4174;48.304;16.364;2023-03-23T16:26:56;21.60;57.60
8269;DHT22;4174;48.304;16.364;2023-03-23T16:33:01;21.50;57.10
8269;DHT22;4174;48.304;16.364;2023-03-23T16:39:10;21.40;55.70
8269;DHT22;4174;48.304;16.364;2023-03-23T16:45:16;21.40;56.30
8269;DHT22;4174;48.304;16.364;2023-03-23T16:51:22;21.50;56.50
8269;DHT22;4174;48.304;16.364;2023-03-23T16:57:31;21.00;56.80
8269;DHT22;4174;48.304;16.364;2023-03-23T17:03:35;21.00;56.70
8269;DHT22;4174;48.304;16.364;2023-03-23T17:09:41;21.10;57.00
8269;DHT22;4174;48.304;16.364;2023-03-23T17:15:46;20.90;57.30
8269;DHT22;4174;48.304;16.364;2023-03-23T17:21:51;20.50;57.80
8269;DHT22;4174;48.304;16.364;2023-03-23T17:27:56;20.30;58.80
8269;DHT22;4174;48.304;16.364;2023-03-23T17:34:01;20.30;59.40
8269;DHT22;4174;48.304;16.364;2023-03-23T17:40:08;20.10;59.70
8269;DHT22;4174;48.304;16.364;2023-03-23T17:46:20;20.00;59.90
8269;DHT22;4174;48.304;16.364;2023-03-23T17:52:31;19.80;61.60
8269;DHT22;4174;48.304;16.364;2023-03-23T17:58:40;19.80;61.60
8269;DHT22;4174;48.304;16.364;2023-03-23T18:04:44;19.80;62.60
8269;DHT22;4174;48.304;16.364;2023-03-23T18:10:50;19.70;63.00
8269;DHT22;4174;48.304;16.364;2023-03-23T18:16:53;19.40;63.80
8269;DHT22;4174;48.304;16.364;2023-03-23T18:22:57;19.40;64.90
8269;DHT22;4174;48.304;16.364;2023-03-23T18:29:00;19.20;66.60
8269;DHT22;4174;48.304;16.364;2023-03-23T18:35:04;19.20;68.00
8269;DHT22;4174;48.304;16.364;2023-03-23T18:41:08;19.10;69.10
8269;DHT22;4174;48.304;16.364;2023-03-23T18:47:11;19.50;69.50
8269;DHT22;4174;48.304;16.364;2023-03-23T18:53:15;19.50;69.50
8269;DHT22;4174;48.304;16.364;2023-03-23T18:59:19;19.70;69.20
8269;DHT22;4174;48.304;16.364;2023-03-23T19:05:22;19.60;67.90
8269;DHT22;4174;48.304;16.364;2023-03-23T19:11:26;19.60;67.90
8269;DHT22;4174;48.304;16.364;2023-03-23T19:17:30;19.70;68.20
8269;DHT22;4174;48.304;16.364;2023-03-23T19:23:33;19.70;68.40
8269;DHT22;4174;48.304;16.364;2023-03-23T19:29:38;19.30;68.50
8269;DHT22;4174;48.304;16.364;2023-03-23T19:35:41;19.30;68.50
8269;DHT22;4174;48.304;16.364;2023-03-23T19:41:44;19.40;69.20
8269;DHT22;4174;48.304;16.364;2023-03-23T19:47:48;19.10;72.10
8269;DHT22;4174;48.304;16.364;2023-03-23T19:53:51;19.10;72.10
8269;DHT22;4174;48.304;16.364;2023-03-23T19:59:54;19.00;73.80
8269;DHT22;4174;48.304;16.364;2023-03-23T20:05:59;19.00;77.10
8269;DHT22;4174;48.304;16.364;2023-03-23T20:12:02;19.10;78.30
8269;DHT22;4174;48.304;16.364;2023-03-23T20:18:05;19.10;77.50
8269;DHT22;4174;48.304;16.364;2023-03-23T20:24:09;19.10;77.10
8269;DHT22;4174;48.304;16.364;2023-03-23T20:30:13;18.90;82.30
8269;DHT22;4174;48.304;16.364;2023-03-23T20:36:16;18.90;82.30
8269;DHT22;4174;48.304;16.364;2023-03-23T20:42:20;18.90;82.80
8269;DHT22;4174;48.304;16.364;2023-03-23T20:48:25;18.70;85.00
8269;DHT22;4174;48.304;16.364;2023-03-23T20:54:27;18.70;89.00
8269;DHT22;4174;48.304;16.364;2023-03-23T21:00:30;18.60;90.10
8269;DHT22;4174;48.304;16.364;2023-03-23T21:06:33;18.50;90.90
8269;DHT22;4174;48.304;16.364;2023-03-23T21:12:37;18.30;90.90
8269;DHT22;4174;48.304;16.364;2023-03-23T21:18:41;17.90;92.60
8269;DHT22;4174;48.304;16.364;2023-03-23T21:24:44;17.90;92.50
8269;DHT22;4174;48.304;16.364;2023-03-23T21:30:48;17.70;90.80
8269;DHT22;4174;48.304;16.364;2023-03-23T21:36:51;17.60;94.00
8269;DHT22;4174;48.304;16.364;2023-03-23T21:42:55;17.50;94.70
8269;DHT22;4174;48.304;16.364;2023-03-23T21:48:59;17.60;96.30
8269;DHT22;4174;48.304;16.364;2023-03-23T21:55:03;17.50;96.20
8269;DHT22;4174;48.304;16.364;2023-03-23T22:01:07;17.50;97.80
8269;DHT22;4174;48.304;16.364;2023-03-23T22:07:09;17.40;97.30
8269;DHT22;4174;48.304;16.364;2023-03-23T22:13:12;17.30;97.00
8269;DHT22;4174;48.304;16.364;2023-03-23T22:19:16;17.20;98.90
8269;DHT22;4174;48.304;16.364;2023-03-23T22:25:19;17.10;99.90
8269;DHT22;4174;48.304;16.364;2023-03-23T22:31:23;17.10;99.90
8269;DHT22;4174;48.304;16.364;2023-03-23T22:37:25;17.10;99.90
8269;DHT22;4174;48.304;16.364;2023-03-23T22:43:28;17.00;99.90
8269;DHT22;4174;48.304;16.364;2023-03-23T22:49:31;16.90;99.90
8269;DHT22;4174;48.304;16.364;2023-03-23T22:55:34;16.80;99.90
8269;DHT22;4174;48.304;16.364;2023-03-23T23:01:38;16.80;99.90
8269;DHT22;4174;48.304;16.364;2023-03-23T23:07:41;16.60;99.90
8269;DHT22;4174;48.304;16.364;2023-03-23T23:13:45;16.60;99.90
8269;DHT22;4174;48.304;16.364;2023-03-23T23:19:49;16.50;99.90
8269;DHT22;4174;48.304;16.364;2023-03-23T23:25:52;16.50;99.90
8269;DHT22;4174;48.304;16.364;2023-03-23T23:31:54;16.40;99.90
8269;DHT22;4174;48.304;16.364;2023-03-23T23:37:58;16.30;99.90
8269;DHT22;4174;48.304;16.364;2023-03-23T23:44:01;16.20;99.90
8269;DHT22;4174;48.304;16.364;2023-03-23T23:50:05;16.10;99.90
8269;DHT22;4174;48.304;16.364;2023-03-23T23:56:10;15.90;99.90
